Time;durP1;ratioP1;P1;durP2;ratioP2;P2;SDS_P1;SDS_P2;PMS_P1;PMS_P2;Temp;Humidity;BMP_temperature;BMP_pressure;BME280_temperature;BME280_humidity;BME280_pressure;Samples;Min_cycle;Max_cycle;Signal;HPM_P1;HPM_P2
2022/03/31 00:00:37;;;;;;;49.13;23.60;;;;;;;;;;5070936;28;20463;-66
2022/03/31 00:03:05;;;;;;;45.10;19.80;;;;;;;;;;5070880;28;20036;-66
2022/03/31 00:05:32;;;;;;;46.28;21.33;;;;;;;;;;5071288;28;20127;-66
2022/03/31 00:08:02;;;;;;;44.38;21.05;;;;;;;;;;5070969;28;20161;-66
2022/03/31 00:10:33;;;;;;;46.55;20.35;;;;;;;;;;5070992;28;20028;-66
2022/03/31 00:13:00;;;;;;;51.88;24.23;;;;;;;;;;5070944;28;20565;-66
2022/03/31 00:15:27;;;;;;;53.30;23.77;;;;;;;;;;5070755;28;20083;-66
2022/03/31 00:17:54;;;;;;;62.88;24.98;;;;;;;;;;5070598;28;20553;-66
2022/03/31 00:20:20;;;;;;;60.22;26.02;;;;;;;;;;5071040;28;20500;-66
2022/03/31 00:22:46;;;;;;;59.38;25.85;;;;;;;;;;5070642;28;20028;-66
2022/03/31 00:25:13;;;;;;;55.20;25.92;;;;;;;;;;5071228;28;20027;-66
2022/03/31 00:27:40;;;;;;;59.20;26.00;;;;;;;;;;5070627;28;20036;-66
2022/03/31 00:30:07;;;;;;;58.80;26.90;;;;;;;;;;5054717;28;20028;-66
2022/03/31 00:32:34;;;;;;;61.15;28.58;;;;;;;;;;5071200;28;20369;-66
2022/03/31 00:35:00;;;;;;;60.22;27.40;;;;;;;;;;5066980;28;20063;-66
2022/03/31 00:37:27;;;;;;;61.97;26.75;;;;;;;;;;5067491;28;20510;-66
2022/03/31 00:39:54;;;;;;;66.22;28.65;;;;;;;;;;5064643;28;20033;-66
2022/03/31 00:42:21;;;;;;;68.85;27.75;;;;;;;;;;5057360;28;20024;-66
2022/03/31 00:44:47;;;;;;;69.25;28.35;;;;;;;;;;5066696;28;20074;-66
2022/03/31 00:47:13;;;;;;;69.85;28.73;;;;;;;;;;5063610;28;20507;-66
2022/03/31 00:49:39;;;;;;;71.47;30.80;;;;;;;;;;5070452;28;20029;-66
2022/03/31 00:52:05;;;;;;;65.72;30.42;;;;;;;;;;5070388;28;20020;-66
2022/03/31 00:54:32;;;;;;;64.97;28.83;;;;;;;;;;5070817;28;20400;-66
2022/03/31 00:56:59;;;;;;;69.13;30.48;;;;;;;;;;5070530;28;20077;-66
2022/03/31 00:59:26;;;;;;;67.80;29.45;;;;;;;;;;5070216;28;20518;-66
2022/03/31 01:01:52;;;;;;;69.07;30.45;;;;;;;;;;5070238;28;20024;-66
2022/03/31 01:04:18;;;;;;;70.93;31.13;;;;;;;;;;5070566;28;20016;-66
2022/03/31 01:06:44;;;;;;;72.28;30.73;;;;;;;;;;5070281;28;20404;-66
2022/03/31 01:09:12;;;;;;;73.70;31.52;;;;;;;;;;5070520;28;20029;-66
2022/03/31 01:11:39;;;;;;;78.20;34.20;;;;;;;;;;5070294;28;20020;-66
2022/03/31 01:14:06;;;;;;;75.80;32.17;;;;;;;;;;5069500;28;20049;-66
2022/03/31 01:16:33;;;;;;;73.78;32.35;;;;;;;;;;5070633;28;20044;-66
2022/03/31 01:19:03;;;;;;;75.00;32.85;;;;;;;;;;5070328;28;20041;-66
2022/03/31 01:21:29;;;;;;;74.03;33.47;;;;;;;;;;5070490;28;20036;-66
2022/03/31 01:23:56;;;;;;;79.43;34.05;;;;;;;;;;5072637;28;20028;-66
2022/03/31 01:26:22;;;;;;;80.03;33.53;;;;;;;;;;5073768;28;20020;-66
2022/03/31 01:28:50;;;;;;;75.07;32.17;;;;;;;;;;5073924;28;20056;-66
2022/03/31 01:31:16;;;;;;;82.70;33.42;;;;;;;;;;5073939;28;20029;-66
2022/03/31 01:33:42;;;;;;;73.57;34.08;;;;;;;;;;5073709;28;20488;-66
2022/03/31 01:36:09;;;;;;;75.65;35.75;;;;;;;;;;5073522;28;20064;-66
2022/03/31 01:38:35;;;;;;;82.82;36.25;;;;;;;;;;5073912;28;20543;-66
2022/03/31 01:41:01;;;;;;;72.20;33.10;;;;;;;;;;5073004;28;20025;-66
2022/03/31 01:43:27;;;;;;;88.22;35.83;;;;;;;;;;5073540;28;20050;-66
2022/03/31 01:45:54;;;;;;;71.65;32.53;;;;;;;;;;5073310;28;20021;-66
2022/03/31 01:48:21;;;;;;;81.95;34.33;;;;;;;;;;5067883;28;20111;-66
2022/03/31 01:50:47;;;;;;;78.05;34.35;;;;;;;;;;5073487;28;20027;-66
2022/03/31 01:53:18;;;;;;;81.05;34.50;;;;;;;;;;5073385;28;20020;-66
2022/03/31 01:55:44;;;;;;;80.20;35.72;;;;;;;;;;5072926;28;20101;-66
2022/03/31 01:58:11;;;;;;;82.82;34.13;;;;;;;;;;5072967;28;20408;-66
2022/03/31 02:00:37;;;;;;;85.15;35.10;;;;;;;;;;5073272;28;20094;-66
2022/03/31 02:03:03;;;;;;;82.05;35.08;;;;;;;;;;5073159;28;20020;-66
2022/03/31 02:05:29;;;;;;;84.00;36.17;;;;;;;;;;5073221;28;20059;-66
2022/03/31 02:07:56;;;;;;;80.90;34.78;;;;;;;;;;5073067;28;20028;-66
2022/03/31 02:10:25;;;;;;;78.15;35.53;;;;;;;;;;5072662;28;20369;-66
2022/03/31 02:12:52;;;;;;;80.90;33.83;;;;;;;;;;5073185;28;20419;-66
2022/03/31 02:15:20;;;;;;;75.97;33.42;;;;;;;;;;5072730;28;20187;-66
2022/03/31 02:17:46;;;;;;;75.97;32.03;;;;;;;;;;5073139;28;20376;-66
2022/03/31 02:20:13;;;;;;;79.38;33.35;;;;;;;;;;5072651;28;20770;-66
2022/03/31 02:22:39;;;;;;;83.97;34.72;;;;;;;;;;5072943;28;20492;-66
2022/03/31 02:25:08;;;;;;;72.40;32.75;;;;;;;;;;5072070;28;20016;-66
2022/03/31 02:27:35;;;;;;;83.78;34.80;;;;;;;;;;5073057;28;20037;-66
2022/03/31 02:30:01;;;;;;;81.63;32.08;;;;;;;;;;5072393;28;20028;-66
2022/03/31 02:32:28;;;;;;;75.60;32.63;;;;;;;;;;5072794;28;20020;-66
2022/03/31 02:34:54;;;;;;;81.45;32.47;;;;;;;;;;5072566;28;20489;-66
2022/03/31 02:37:20;;;;;;;78.13;34.08;;;;;;;;;;5072534;28;20119;-66
2022/03/31 02:39:46;;;;;;;76.80;35.70;;;;;;;;;;5072324;28;20104;-66
2022/03/31 02:42:12;;;;;;;77.82;36.05;;;;;;;;;;5071967;28;20043;-66
2022/03/31 02:44:38;;;;;;;71.97;31.52;;;;;;;;;;5072383;28;20028;-66
2022/03/31 02:47:05;;;;;;;70.22;30.92;;;;;;;;;;5072349;28;20043;-66
2022/03/31 02:49:31;;;;;;;82.15;34.67;;;;;;;;;;5066648;28;20017;-66
2022/03/31 02:51:58;;;;;;;75.90;33.33;;;;;;;;;;5072539;28;20027;-67
2022/03/31 02:57:09;;;;;;;65.90;29.98;;;;;;;;;;5072157;28;20032;-66
2022/03/31 02:59:35;;;;;;;82.22;33.25;;;;;;;;;;5072096;28;20488;-66
2022/03/31 03:02:01;;;;;;;75.88;34.35;;;;;;;;;;5071879;28;20099;-66
2022/03/31 03:04:27;;;;;;;69.50;31.35;;;;;;;;;;5072117;28;20025;-66
2022/03/31 03:06:53;;;;;;;65.85;30.38;;;;;;;;;;5071856;28;20439;-66
2022/03/31 03:09:20;;;;;;;75.45;33.78;;;;;;;;;;5071367;28;20020;-66
2022/03/31 03:11:46;;;;;;;77.55;30.95;;;;;;;;;;5071805;28;20021;-66
2022/03/31 03:14:13;;;;;;;77.97;31.15;;;;;;;;;;5071326;28;20059;-66
2022/03/31 03:16:40;;;;;;;78.60;31.30;;;;;;;;;;5071951;28;20055;-66
2022/03/31 03:19:07;;;;;;;67.82;28.63;;;;;;;;;;5071623;28;20029;-66
2022/03/31 03:21:37;;;;;;;71.75;29.58;;;;;;;;;;5071793;28;20037;-66
2022/03/31 03:24:04;;;;;;;63.08;26.50;;;;;;;;;;5071168;28;20096;-66
2022/03/31 03:26:30;;;;;;;65.32;26.38;;;;;;;;;;5071710;28;20135;-66
2022/03/31 03:28:57;;;;;;;63.30;26.02;;;;;;;;;;5071699;28;20033;-66
2022/03/31 03:31:23;;;;;;;55.20;22.15;;;;;;;;;;5071130;28;20039;-66
2022/03/31 03:33:49;;;;;;;47.15;19.60;;;;;;;;;;5071673;28;20606;-66
2022/03/31 03:36:19;;;;;;;45.80;19.75;;;;;;;;;;5071025;28;20063;-66
2022/03/31 03:38:45;;;;;;;49.90;20.63;;;;;;;;;;5071245;28;20051;-66
2022/03/31 03:41:12;;;;;;;47.13;20.70;;;;;;;;;;5071418;28;20025;-66
2022/03/31 03:43:39;;;;;;;50.63;21.55;;;;;;;;;;5071474;28;20033;-66
2022/03/31 03:46:05;;;;;;;50.00;19.27;;;;;;;;;;5070982;28;20158;-66
2022/03/31 03:48:31;;;;;;;50.38;20.95;;;;;;;;;;5070967;28;20690;-66
2022/03/31 03:50:57;;;;;;;39.53;17.08;;;;;;;;;;5071487;28;20021;-66
2022/03/31 03:53:23;;;;;;;46.90;17.13;;;;;;;;;;5070914;28;20021;-66
2022/03/31 03:55:49;;;;;;;51.20;19.52;;;;;;;;;;5071437;28;20040;-66
2022/03/31 03:58:15;;;;;;;40.72;17.63;;;;;;;;;;5070948;28;20024;-66
2022/03/31 04:00:42;;;;;;;41.70;17.95;;;;;;;;;;5071313;28;20111;-66
2022/03/31 04:03:08;;;;;;;41.08;17.15;;;;;;;;;;5071283;28;20392;-66
2022/03/31 04:05:34;;;;;;;38.85;16.33;;;;;;;;;;5071044;28;20146;-66
2022/03/31 04:08:00;;;;;;;39.97;18.80;;;;;;;;;;5070899;28;20085;-66
2022/03/31 04:10:26;;;;;;;44.00;18.15;;;;;;;;;;5070687;28;20044;-66
2022/03/31 04:12:52;;;;;;;49.40;20.42;;;;;;;;;;5071055;28;20025;-66
2022/03/31 04:15:19;;;;;;;45.65;20.63;;;;;;;;;;5070962;28;20060;-66
2022/03/31 04:17:45;;;;;;;53.92;21.95;;;;;;;;;;5071483;28;20714;-66
2022/03/31 04:20:13;;;;;;;50.88;20.13;;;;;;;;;;5070949;28;20056;-66
2022/03/31 04:22:39;;;;;;;51.20;20.17;;;;;;;;;;5054474;28;20032;-66
2022/03/31 04:25:06;;;;;;;51.50;20.80;;;;;;;;;;5071263;28;20453;-66
2022/03/31 04:27:34;;;;;;;49.15;19.48;;;;;;;;;;5070890;28;20040;-66
2022/03/31 04:30:00;;;;;;;48.78;20.77;;;;;;;;;;5071152;28;20028;-66
2022/03/31 04:32:26;;;;;;;54.13;22.73;;;;;;;;;;5070594;28;20055;-66
2022/03/31 04:34:52;;;;;;;50.95;21.13;;;;;;;;;;5070652;28;20017;-66
2022/03/31 04:37:18;;;;;;;53.28;21.20;;;;;;;;;;5070600;28;20489;-66
2022/03/31 04:39:44;;;;;;;47.90;19.10;;;;;;;;;;5071086;28;20021;-66
2022/03/31 04:42:11;;;;;;;46.95;20.35;;;;;;;;;;5071059;28;20036;-66
2022/03/31 04:44:40;;;;;;;54.40;20.00;;;;;;;;;;5070476;28;20086;-66
2022/03/31 04:47:07;;;;;;;42.05;18.17;;;;;;;;;;5071016;28;20032;-66
2022/03/31 04:49:34;;;;;;;39.85;16.95;;;;;;;;;;5070207;28;20075;-66
2022/03/31 04:52:00;;;;;;;35.05;16.35;;;;;;;;;;5070924;28;20039;-66
2022/03/31 04:54:26;;;;;;;43.70;18.00;;;;;;;;;;5070235;28;20445;-66
2022/03/31 04:56:53;;;;;;;43.90;17.02;;;;;;;;;;5074456;28;20081;-66
2022/03/31 04:59:19;;;;;;;38.80;16.73;;;;;;;;;;5068527;28;20024;-66
2022/03/31 05:01:45;;;;;;;44.65;19.20;;;;;;;;;;5074168;28;20028;-66
2022/03/31 05:04:12;;;;;;;44.38;17.52;;;;;;;;;;5081848;28;20028;-66
2022/03/31 05:06:38;;;;;;;38.75;16.83;;;;;;;;;;5076717;28;20038;-66
2022/03/31 05:09:04;;;;;;;47.67;20.90;;;;;;;;;;5086030;28;20012;-66
2022/03/31 05:11:31;;;;;;;57.28;23.58;;;;;;;;;;5085462;28;20024;-66
2022/03/31 05:13:57;;;;;;;50.65;23.05;;;;;;;;;;5088868;28;20496;-66
2022/03/31 05:16:23;;;;;;;60.15;25.98;;;;;;;;;;5078860;28;20024;-67
2022/03/31 05:18:49;;;;;;;57.92;26.77;;;;;;;;;;5073754;28;20150;-67
2022/03/31 05:21:15;;;;;;;54.10;25.35;;;;;;;;;;5089011;28;20020;-67
2022/03/31 05:23:42;;;;;;;59.78;27.85;;;;;;;;;;5084326;28;20024;-67
2022/03/31 05:26:08;;;;;;;60.55;25.40;;;;;;;;;;5086523;28;20066;-67
2022/03/31 05:28:34;;;;;;;55.70;26.95;;;;;;;;;;5081476;28;20396;-67
2022/03/31 05:31:00;;;;;;;55.95;25.90;;;;;;;;;;5071464;28;20103;-67
2022/03/31 05:33:26;;;;;;;50.67;22.50;;;;;;;;;;5078861;28;20024;-67
2022/03/31 05:35:52;;;;;;;44.65;22.25;;;;;;;;;;5080111;28;20051;-67
2022/03/31 05:38:19;;;;;;;49.47;23.48;;;;;;;;;;5089474;28;20039;-67
2022/03/31 05:40:46;;;;;;;48.92;21.88;;;;;;;;;;5088550;28;20380;-67
2022/03/31 05:43:12;;;;;;;54.72;22.08;;;;;;;;;;5072111;28;20025;-67
2022/03/31 05:45:38;;;;;;;55.60;22.38;;;;;;;;;;5072146;28;20541;-66
2022/03/31 05:48:05;;;;;;;48.80;19.77;;;;;;;;;;5072535;28;20045;-66
2022/03/31 05:50:31;;;;;;;48.80;21.27;;;;;;;;;;5073280;28;20027;-66
2022/03/31 05:52:57;;;;;;;45.13;19.45;;;;;;;;;;5072479;28;20079;-66
2022/03/31 05:55:23;;;;;;;38.72;18.08;;;;;;;;;;5073448;28;20043;-66
2022/03/31 05:57:49;;;;;;;42.72;17.98;;;;;;;;;;5073430;28;20056;-66
2022/03/31 06:00:17;;;;;;;42.50;18.25;;;;;;;;;;5072099;28;20102;-66
2022/03/31 06:02:45;;;;;;;39.25;15.02;;;;;;;;;;5067535;28;20159;-66
2022/03/31 06:05:11;;;;;;;29.58;10.95;;;;;;;;;;5068845;28;20020;-66
2022/03/31 06:07:38;;;;;;;25.65;8.88;;;;;;;;;;5066508;28;20051;-66
2022/03/31 06:10:04;;;;;;;24.20;7.45;;;;;;;;;;5071335;28;20016;-66
2022/03/31 06:12:31;;;;;;;20.15;6.32;;;;;;;;;;5073023;28;20082;-66
2022/03/31 06:14:58;;;;;;;19.00;5.07;;;;;;;;;;5070591;28;20054;-66
2022/03/31 06:17:24;;;;;;;16.90;4.25;;;;;;;;;;5073206;28;20055;-66
2022/03/31 06:19:50;;;;;;;21.05;3.83;;;;;;;;;;5062012;28;20036;-66
2022/03/31 06:22:16;;;;;;;6.10;2.80;;;;;;;;;;5072594;28;20070;-66
2022/03/31 06:24:42;;;;;;;10.10;2.40;;;;;;;;;;5070158;28;20071;-66
2022/03/31 06:27:09;;;;;;;16.73;2.95;;;;;;;;;;5072357;28;20444;-66
2022/03/31 06:29:35;;;;;;;16.75;3.13;;;;;;;;;;5072637;28;20366;-66
2022/03/31 06:32:02;;;;;;;15.57;3.53;;;;;;;;;;5072577;28;20089;-66
2022/03/31 06:34:28;;;;;;;13.38;2.83;;;;;;;;;;5072576;28;20040;-67
2022/03/31 06:36:55;;;;;;;5.75;2.53;;;;;;;;;;5073189;28;20035;-66
2022/03/31 06:39:21;;;;;;;10.75;2.25;;;;;;;;;;5071856;28;20035;-67
2022/03/31 06:41:48;;;;;;;11.73;2.22;;;;;;;;;;5071381;28;20033;-67
2022/03/31 06:44:16;;;;;;;9.45;2.30;;;;;;;;;;5064560;28;20037;-67
2022/03/31 06:46:42;;;;;;;6.40;2.72;;;;;;;;;;5069358;28;20115;-67
2022/03/31 06:49:09;;;;;;;9.00;3.15;;;;;;;;;;5067550;28;20502;-67
2022/03/31 06:51:35;;;;;;;9.52;3.72;;;;;;;;;;5068452;28;20078;-67
2022/03/31 06:54:02;;;;;;;9.48;3.35;;;;;;;;;;5070665;28;20040;-67
2022/03/31 06:56:29;;;;;;;7.03;3.38;;;;;;;;;;5070115;28;20488;-67
2022/03/31 06:58:56;;;;;;;10.15;3.63;;;;;;;;;;5065244;28;20074;-67
2022/03/31 07:01:22;;;;;;;12.32;4.07;;;;;;;;;;5069255;28;20024;-67
2022/03/31 07:03:49;;;;;;;13.40;3.55;;;;;;;;;;5071019;28;20024;-67
2022/03/31 07:06:15;;;;;;;14.95;4.32;;;;;;;;;;5071537;28;20445;-67
2022/03/31 07:08:41;;;;;;;9.25;2.95;;;;;;;;;;5069062;28;20037;-67
2022/03/31 07:11:09;;;;;;;9.73;3.47;;;;;;;;;;5068370;28;20090;-67
2022/03/31 07:13:35;;;;;;;14.95;3.30;;;;;;;;;;5067579;28;20060;-67
2022/03/31 07:16:01;;;;;;;7.75;3.50;;;;;;;;;;5066387;28;20056;-67
2022/03/31 07:18:27;;;;;;;15.13;3.63;;;;;;;;;;5070963;28;20479;-67
2022/03/31 07:20:53;;;;;;;6.00;2.75;;;;;;;;;;5063946;28;20432;-67
2022/03/31 07:23:23;;;;;;;9.68;2.95;;;;;;;;;;5065520;28;20496;-67
2022/03/31 07:25:53;;;;;;;13.10;3.03;;;;;;;;;;5067987;28;20036;-67
2022/03/31 07:28:20;;;;;;;7.45;2.80;;;;;;;;;;5079226;28;20491;-67
2022/03/31 07:30:47;;;;;;;12.23;3.40;;;;;;;;;;5075099;28;20082;-67
2022/03/31 07:33:13;;;;;;;15.40;3.40;;;;;;;;;;5069581;28;20066;-67
2022/03/31 07:35:42;;;;;;;5.57;2.67;;;;;;;;;;5070560;28;20063;-67
2022/03/31 07:38:09;;;;;;;8.38;3.13;;;;;;;;;;5067557;28;20111;-67
2022/03/31 07:40:39;;;;;;;9.02;3.40;;;;;;;;;;5068381;28;20031;-67
2022/03/31 07:43:06;;;;;;;11.65;3.28;;;;;;;;;;5061939;28;20047;-67
2022/03/31 07:45:34;;;;;;;13.50;4.18;;;;;;;;;;5070646;28;20033;-67
2022/03/31 07:48:01;;;;;;;7.43;2.50;;;;;;;;;;5059150;28;20511;-67
2022/03/31 07:50:27;;;;;;;5.35;2.50;;;;;;;;;;5078170;28;20028;-67
2022/03/31 07:52:53;;;;;;;9.88;2.65;;;;;;;;;;5077491;28;20028;-67
2022/03/31 07:55:22;;;;;;;7.32;2.15;;;;;;;;;;5065147;28;20025;-67
2022/03/31 07:57:50;;;;;;;3.90;2.20;;;;;;;;;;5070709;28;20042;-67
2022/03/31 08:00:16;;;;;;;10.48;2.58;;;;;;;;;;5071959;28;20074;-67
2022/03/31 08:02:44;;;;;;;10.60;2.75;;;;;;;;;;5083061;28;20032;-67
2022/03/31 08:05:11;;;;;;;6.93;2.55;;;;;;;;;;5083637;28;20027;-67
2022/03/31 08:07:37;;;;;;;14.25;3.33;;;;;;;;;;5077016;28;20028;-67
2022/03/31 08:10:04;;;;;;;14.25;2.13;;;;;;;;;;5084098;28;20464;-67
2022/03/31 08:12:31;;;;;;;8.45;1.88;;;;;;;;;;5062029;28;20052;-67
2022/03/31 08:14:57;;;;;;;12.25;2.25;;;;;;;;;;5068805;28;20072;-67
2022/03/31 08:17:23;;;;;;;7.18;1.83;;;;;;;;;;5066691;28;20028;-67
2022/03/31 08:19:49;;;;;;;15.15;1.98;;;;;;;;;;5071111;28;20029;-67
2022/03/31 08:22:17;;;;;;;7.72;1.60;;;;;;;;;;5070072;28;20070;-67
2022/03/31 08:24:43;;;;;;;5.05;1.65;;;;;;;;;;5069215;28;20473;-67
2022/03/31 08:27:10;;;;;;;8.50;1.92;;;;;;;;;;5069937;28;20036;-67
2022/03/31 08:29:36;;;;;;;11.50;1.60;;;;;;;;;;5070524;28;20031;-67
2022/03/31 08:32:04;;;;;;;6.18;1.35;;;;;;;;;;5072373;28;20024;-67
2022/03/31 08:34:30;;;;;;;5.75;1.40;;;;;;;;;;5074625;28;20104;-67
2022/03/31 08:36:56;;;;;;;12.15;1.92;;;;;;;;;;5074845;28;20377;-67
2022/03/31 08:39:23;;;;;;;10.32;1.75;;;;;;;;;;5074288;28;20074;-67
2022/03/31 08:41:49;;;;;;;10.98;1.52;;;;;;;;;;5074326;28;20456;-67
2022/03/31 08:44:19;;;;;;;4.82;1.45;;;;;;;;;;5074057;28;20132;-67
2022/03/31 08:46:45;;;;;;;12.50;1.58;;;;;;;;;;5074586;28;20047;-67
2022/03/31 08:49:12;;;;;;;7.55;1.70;;;;;;;;;;5074169;28;20028;-67
2022/03/31 08:51:39;;;;;;;4.25;1.23;;;;;;;;;;5072658;28;20081;-67
2022/03/31 08:54:05;;;;;;;12.02;1.55;;;;;;;;;;5073314;28;20039;-67
2022/03/31 08:56:32;;;;;;;7.35;1.80;;;;;;;;;;5073657;28;20126;-67
2022/03/31 08:58:58;;;;;;;4.57;1.88;;;;;;;;;;5073688;28;20024;-67
2022/03/31 09:01:24;;;;;;;2.88;1.27;;;;;;;;;;5069235;28;20138;-67
2022/03/31 09:03:50;;;;;;;5.53;1.75;;;;;;;;;;5074282;28;20409;-67
2022/03/31 09:06:23;;;;;;;9.05;1.77;;;;;;;;;;5073701;28;20031;-67
2022/03/31 09:08:56;;;;;;;9.57;1.75;;;;;;;;;;5072013;28;20504;-67
2022/03/31 09:11:28;;;;;;;5.60;1.67;;;;;;;;;;5061761;28;20040;-67
2022/03/31 09:13:55;;;;;;;10.02;2.67;;;;;;;;;;5065252;28;20040;-67
2022/03/31 09:16:29;;;;;;;4.82;1.98;;;;;;;;;;5059427;28;20123;-67
2022/03/31 09:19:00;;;;;;;7.28;2.95;;;;;;;;;;5076775;28;20021;-67
2022/03/31 09:21:26;;;;;;;10.38;2.30;;;;;;;;;;5087550;28;20035;-67
2022/03/31 09:23:52;;;;;;;9.50;2.63;;;;;;;;;;5090435;28;20016;-68
2022/03/31 09:26:18;;;;;;;5.07;2.13;;;;;;;;;;5088405;28;20530;-67
2022/03/31 09:28:46;;;;;;;12.50;2.60;;;;;;;;;;5082450;28;20024;-69
2022/03/31 09:31:13;;;;;;;11.90;3.20;;;;;;;;;;5089559;28;20058;-67
2022/03/31 09:33:48;;;;;;;6.28;2.50;;;;;;;;;;5082970;28;20476;-67
2022/03/31 09:36:22;;;;;;;10.07;2.72;;;;;;;;;;5088367;28;20031;-66
2022/03/31 09:38:51;;;;;;;9.32;2.53;;;;;;;;;;5084604;28;20035;-67
2022/03/31 09:41:24;;;;;;;9.02;3.00;;;;;;;;;;5090817;28;20581;-67
2022/03/31 09:43:51;;;;;;;13.90;2.63;;;;;;;;;;5089513;28;20031;-67
2022/03/31 09:46:38;;;;;;;13.75;3.03;;;;;;;;;;5089793;28;20020;-67
2022/03/31 09:49:11;;;;;;;5.88;1.95;;;;;;;;;;5080789;28;20035;-67
2022/03/31 09:51:37;;;;;;;14.57;2.25;;;;;;;;;;5083422;28;20032;-67
2022/03/31 09:54:04;;;;;;;5.88;1.65;;;;;;;;;;5087272;28;20027;-67
2022/03/31 09:56:33;;;;;;;9.82;2.22;;;;;;;;;;5089675;28;20031;-67
2022/03/31 09:59:01;;;;;;;10.32;1.92;;;;;;;;;;5083966;28;20028;-67
2022/03/31 10:01:27;;;;;;;12.20;2.95;;;;;;;;;;5089358;28;20126;-67
2022/03/31 10:03:55;;;;;;;10.25;2.30;;;;;;;;;;5088819;28;20024;-67
2022/03/31 10:06:21;;;;;;;10.57;2.55;;;;;;;;;;5087898;28;20120;-67
2022/03/31 10:08:48;;;;;;;5.60;1.85;;;;;;;;;;5083812;28;20099;-67
2022/03/31 10:11:14;;;;;;;5.50;2.00;;;;;;;;;;5088221;28;20098;-67
2022/03/31 10:13:43;;;;;;;9.40;1.90;;;;;;;;;;5089568;28;20311;-67
2022/03/31 10:16:13;;;;;;;11.45;1.92;;;;;;;;;;5078348;28;20043;-67
2022/03/31 10:18:45;;;;;;;16.00;2.30;;;;;;;;;;5079918;28;20489;-67
2022/03/31 10:21:11;;;;;;;8.13;2.20;;;;;;;;;;5089756;28;20050;-66
2022/03/31 10:26:26;;;;;;;11.63;2.75;;;;;;;;;;5073315;28;20400;-67
2022/03/31 10:28:59;;;;;;;12.18;2.47;;;;;;;;;;5073190;28;20024;-67
2022/03/31 10:31:35;;;;;;;10.63;3.13;;;;;;;;;;5072344;28;20465;-67
2022/03/31 10:34:01;;;;;;;5.93;2.28;;;;;;;;;;5072893;28;20550;-67
2022/03/31 10:36:35;;;;;;;8.30;2.03;;;;;;;;;;5072825;28;20060;-67
2022/03/31 10:39:05;;;;;;;6.22;1.95;;;;;;;;;;5072577;28;20029;-66
2022/03/31 10:41:38;;;;;;;9.18;2.60;;;;;;;;;;5072598;28;20397;-66
2022/03/31 10:44:16;;;;;;;11.40;2.45;;;;;;;;;;5068872;28;20074;-67
2022/03/31 10:46:44;;;;;;;9.13;2.10;;;;;;;;;;5070587;28;20074;-67
2022/03/31 10:49:13;;;;;;;9.00;1.80;;;;;;;;;;5072370;28;20509;-66
2022/03/31 10:51:43;;;;;;;8.20;2.00;;;;;;;;;;5063554;28;20114;-66
2022/03/31 10:54:12;;;;;;;9.88;2.30;;;;;;;;;;5071429;28;20476;-72
2022/03/31 10:56:38;;;;;;;13.95;2.63;;;;;;;;;;5069383;28;20020;-66
2022/03/31 10:59:06;;;;;;;5.55;1.70;;;;;;;;;;5074947;28;20033;-66
2022/03/31 11:01:36;;;;;;;7.00;1.90;;;;;;;;;;5085906;28;20085;-66
2022/03/31 11:04:06;;;;;;;11.77;2.35;;;;;;;;;;5083272;28;20123;-66
2022/03/31 11:06:33;;;;;;;11.60;2.00;;;;;;;;;;5070218;28;20029;-66
2022/03/31 11:08:59;;;;;;;7.50;2.05;;;;;;;;;;5072023;28;20492;-66
2022/03/31 11:11:30;;;;;;;11.77;2.28;;;;;;;;;;5064649;28;20020;-66
2022/03/31 11:13:57;;;;;;;10.38;2.20;;;;;;;;;;5074157;28;20461;-66
2022/03/31 11:16:24;;;;;;;7.32;2.10;;;;;;;;;;5082007;28;20034;-63
2022/03/31 11:18:54;;;;;;;7.78;2.47;;;;;;;;;;5085208;28;20024;-66
2022/03/31 11:21:20;;;;;;;12.20;2.15;;;;;;;;;;5084702;28;20024;-66
2022/03/31 11:23:47;;;;;;;10.52;2.05;;;;;;;;;;5074428;28;20415;-66
2022/03/31 11:26:26;;;;;;;6.53;2.22;;;;;;;;;;5069089;28;20408;-66
2022/03/31 11:28:53;;;;;;;20.30;2.03;;;;;;;;;;5080386;28;20036;-66
2022/03/31 11:31:20;;;;;;;13.05;1.83;;;;;;;;;;5086607;28;20048;-66
2022/03/31 11:33:46;;;;;;;5.05;1.35;;;;;;;;;;5083013;28;20040;-66
2022/03/31 11:36:13;;;;;;;4.57;1.52;;;;;;;;;;5081087;28;20484;-65
2022/03/31 11:38:39;;;;;;;7.53;1.60;;;;;;;;;;5079900;28;20032;-65
2022/03/31 11:41:05;;;;;;;12.88;1.85;;;;;;;;;;5069880;28;20091;-65
2022/03/31 11:43:32;;;;;;;5.38;1.77;;;;;;;;;;5069134;28;20676;-66
2022/03/31 11:45:59;;;;;;;14.70;1.85;;;;;;;;;;5069408;28;20025;-66
2022/03/31 11:48:31;;;;;;;7.65;1.20;;;;;;;;;;5069459;28;20029;-66
2022/03/31 11:50:59;;;;;;;12.23;2.53;;;;;;;;;;5070687;28;20123;-66
2022/03/31 11:53:27;;;;;;;4.22;1.48;;;;;;;;;;5071570;28;20055;-66
2022/03/31 11:56:02;;;;;;;5.57;1.45;;;;;;;;;;5071356;28;20036;-66
2022/03/31 11:58:30;;;;;;;11.38;1.60;;;;;;;;;;5064847;28;20039;-65
2022/03/31 12:00:57;;;;;;;6.30;1.73;;;;;;;;;;5068785;28;20032;-65
2022/03/31 12:03:23;;;;;;;7.78;1.58;;;;;;;;;;5070516;28;20039;-65
2022/03/31 12:05:57;;;;;;;8.57;1.50;;;;;;;;;;5070542;28;20036;-65
2022/03/31 12:08:23;;;;;;;8.32;2.20;;;;;;;;;;5071289;28;20441;-66
2022/03/31 12:10:51;;;;;;;11.27;1.60;;;;;;;;;;5070788;28;20040;-66
2022/03/31 12:13:18;;;;;;;8.25;2.22;;;;;;;;;;5071421;28;20457;-66
2022/03/31 12:15:44;;;;;;;7.70;1.83;;;;;;;;;;5071078;28;20123;-66
2022/03/31 12:18:13;;;;;;;8.50;2.33;;;;;;;;;;5064427;28;20036;-65
2022/03/31 12:20:40;;;;;;;8.68;1.77;;;;;;;;;;5067423;28;20171;-65
2022/03/31 12:23:20;;;;;;;5.20;1.52;;;;;;;;;;5070670;28;20024;-65
2022/03/31 12:25:46;;;;;;;4.93;1.55;;;;;;;;;;5067821;28;20032;-65
2022/03/31 12:28:12;;;;;;;6.70;1.70;;;;;;;;;;5071192;28;20032;-65
2022/03/31 12:30:39;;;;;;;6.78;1.42;;;;;;;;;;5067302;28;20051;-65
2022/03/31 12:33:15;;;;;;;5.90;1.15;;;;;;;;;;5070743;28;20147;-65
2022/03/31 12:35:42;;;;;;;7.72;1.63;;;;;;;;;;5065160;28;20032;-65
2022/03/31 12:38:09;;;;;;;17.67;1.90;;;;;;;;;;5065179;28;20116;-65
2022/03/31 12:40:35;;;;;;;7.50;1.65;;;;;;;;;;5074069;28;20507;-65
2022/03/31 12:43:01;;;;;;;6.25;1.40;;;;;;;;;;5070692;28;20032;-65
2022/03/31 12:45:28;;;;;;;9.30;2.60;;;;;;;;;;5068092;28;20025;-66
2022/03/31 12:47:55;;;;;;;13.65;4.28;;;;;;;;;;5060736;28;20051;-66
2022/03/31 12:50:22;;;;;;;8.27;2.22;;;;;;;;;;5062032;28;20036;-65
2022/03/31 12:52:53;;;;;;;4.13;1.85;;;;;;;;;;5067657;28;20060;-65
2022/03/31 12:55:21;;;;;;;9.77;2.60;;;;;;;;;;5068211;28;20020;-65
2022/03/31 12:57:54;;;;;;;12.60;2.10;;;;;;;;;;5065312;28;20047;-65
2022/03/31 13:00:22;;;;;;;10.90;1.90;;;;;;;;;;5068159;28;20396;-65
2022/03/31 13:02:48;;;;;;;3.35;1.77;;;;;;;;;;5066372;28;20023;-65
2022/03/31 13:05:25;;;;;;;5.65;2.22;;;;;;;;;;5070132;28;20024;-65
2022/03/31 13:07:52;;;;;;;7.10;2.65;;;;;;;;;;5067219;28;20036;-65
2022/03/31 13:10:19;;;;;;;8.63;2.30;;;;;;;;;;5061387;28;20025;-65
2022/03/31 13:12:45;;;;;;;10.45;3.00;;;;;;;;;;5065490;28;20104;-65
2022/03/31 13:15:13;;;;;;;5.38;2.28;;;;;;;;;;5069728;28;20040;-65
2022/03/31 13:17:42;;;;;;;6.68;3.25;;;;;;;;;;5069754;28;20099;-65
2022/03/31 13:20:10;;;;;;;5.25;3.00;;;;;;;;;;5072833;28;20554;-65
2022/03/31 13:22:37;;;;;;;3.35;2.15;;;;;;;;;;5072298;28;20032;-65
2022/03/31 13:25:04;;;;;;;19.77;5.22;;;;;;;;;;5072440;28;20029;-65
2022/03/31 13:27:30;;;;;;;9.10;2.25;;;;;;;;;;5073122;28;20461;-65
2022/03/31 13:29:57;;;;;;;9.32;2.50;;;;;;;;;;5072948;28;20036;-65
2022/03/31 13:32:23;;;;;;;8.77;2.50;;;;;;;;;;5072897;28;20028;-65
2022/03/31 13:34:49;;;;;;;8.25;2.38;;;;;;;;;;5073028;28;20036;-65
2022/03/31 13:37:17;;;;;;;11.63;3.33;;;;;;;;;;5072095;28;20126;-65
2022/03/31 13:39:43;;;;;;;10.48;3.30;;;;;;;;;;5072362;28;20116;-65
2022/03/31 13:42:10;;;;;;;20.83;2.45;;;;;;;;;;5070126;28;20115;-65
2022/03/31 13:44:37;;;;;;;7.80;2.17;;;;;;;;;;5072206;28;20560;-65
2022/03/31 13:47:03;;;;;;;9.23;2.95;;;;;;;;;;5071317;28;20030;-65
2022/03/31 13:49:30;;;;;;;9.48;2.97;;;;;;;;;;5072574;28;20025;-65
2022/03/31 13:51:56;;;;;;;13.02;2.30;;;;;;;;;;5067211;28;20096;-65
2022/03/31 13:54:25;;;;;;;6.53;2.80;;;;;;;;;;5070640;28;20454;-65
2022/03/31 13:56:52;;;;;;;11.40;2.67;;;;;;;;;;5070838;28;20511;-65
2022/03/31 14:02:04;;;;;;;4.32;2.20;;;;;;;;;;5063070;28;20028;-65
2022/03/31 14:04:31;;;;;;;8.00;2.47;;;;;;;;;;5072126;28;20032;-65
2022/03/31 14:06:57;;;;;;;4.32;2.25;;;;;;;;;;5071304;28;20032;-65
2022/03/31 14:09:24;;;;;;;7.45;3.15;;;;;;;;;;5069919;28;20051;-65
2022/03/31 14:11:55;;;;;;;5.90;2.63;;;;;;;;;;5068844;28;20021;-65
2022/03/31 14:14:23;;;;;;;6.40;2.13;;;;;;;;;;5070647;28;20098;-65
2022/03/31 14:16:50;;;;;;;5.57;2.38;;;;;;;;;;5070139;28;20029;-65
2022/03/31 14:19:20;;;;;;;5.03;2.08;;;;;;;;;;5067998;28;20024;-65
2022/03/31 14:21:48;;;;;;;5.88;1.98;;;;;;;;;;5069647;28;20028;-65
2022/03/31 14:24:14;;;;;;;5.82;2.20;;;;;;;;;;5069830;28;20096;-65
2022/03/31 14:26:41;;;;;;;5.13;2.20;;;;;;;;;;5065739;28;20033;-65
2022/03/31 14:29:07;;;;;;;6.07;1.98;;;;;;;;;;5071521;28;20035;-65
2022/03/31 14:31:34;;;;;;;5.75;1.73;;;;;;;;;;5069730;28;20055;-65
2022/03/31 14:34:01;;;;;;;6.57;1.77;;;;;;;;;;5071584;28;20043;-65
2022/03/31 14:36:27;;;;;;;10.75;2.08;;;;;;;;;;5071634;28;20106;-65